Pinson, TN

5:48 PM CDT on May 25, 2015 (GMT -0500)
Historic East Main Street | | Change Station
CLOSE
Current Station
Personal Weather Station
Location: Jackson, TN
Elevation: 410 ft
Nearby Weather Stations

Elev 410 ft 35.61 °N, 88.81 °W | Updated 3 seconds ago

Overcast
Overcast
75.4 °F
Feels Like 75 °F
N
3.0
Wind Variable Wind from SE
Gusts 8.0 mph

Today
High -- | Low -- °F
--% Chance of Precip.
Yesterday
High -- | Low -- °F
Precip. -- in
5:43 AM 8:00 PM
First Quarter, 52% visible
Pressure 30.05 in
Visibility 10.0 miles
Clouds Few 1700 ft
Overcast 3600 ft
Heat Index 75 °F
Dew Point 71 °F
Humidity 87%
Rainfall 0.30 in
Snow Depth Not available.
UV 1 out of 12
Pollen .70 out of 12
Air Quality Not available.
Flu Activity Sporadic
METAR KMKL 252153Z AUTO 15005KT 10SM FEW017 OVC036 24/20 A3006 RMK AO2 SLP176 T02440200

More Conditions Fewer Conditions

Pressure 30.05 in
Visibility 10.0 miles
Clouds Few 1700 ft
Overcast 3600 ft
Heat Index 75 °F
Dew Point 71 °F
Humidity 87%
Rainfall 0.30 in
Snow Depth Not available.
UV 1 out of 12
Pollen .70 out of 12
Air Quality Not available.
Flu Activity Sporadic
METAR KMKL 252153Z AUTO 15005KT 10SM FEW017 OVC036 24/20 A3006 RMK AO2 SLP176 T02440200

More Conditions Fewer Conditions

10-Day Weather Forecast

Almanac

Astronomy

May. 25, 2015 Rise Set
Actual Time
Civil Twilight
Nautical Twilight
Astronomical Twilight
Moon
Length of Visible Light
Length of Day
Tomorrow will be .
, % of the Moon is Illuminated

Today's Extremes

State Highs State Lows

Community

WunderPhotos

Upload Photos

1,824,153 photos uploaded!

WunderBlogs® & News

Nearby

Air Quality

  Air Quality AQ Index Pollutant
Not available.

Snow Depth

Station Depth Elevation

Earthquake Activity

City Distance Mag. Time & Date
Minimum magnitude displayed is 2.5.

Coastal Water Temperatures

Place Temperature

Stations

Nearby Weather Stations

Station Location Temp. Windchill Dew Point Humidity Wind Precip. Elev Updated Type